Flight Track Log - Related Links

Times and Time Zones

All times are in EDT time to prevent confusion due to time zone crossing. See the RPA3275 flight status page for this flight to view local times or setup timezone preferences in your user account.

Time Position Orientation Groundspeed Altitude Reporting Facility
EDT Latitude Longitude Course Direction KTS MPH feet Rate Location/Type
Mon 06:54:46 AM 42.7694 -73.8089 220° Southwest 153 176 1,500  Level Boston Center
Mon 06:56:05 AM 42.7872 -73.8800 289° West 233 268 4,200 2,238 Climbing Boston Center
Mon 06:56:52 AM 42.7822 -73.9536 265° West 260 299 6,200 2,916 Climbing Boston Center
Mon 06:57:00 AM 42.7218 -74.3230 236° Southwest  Level FlightAware Approximate
Mon 06:57:52 AM 42.7725 -74.0522 262° West 273 314 9,400  Level Boston Center
Mon 06:58:00 AM 42.6491 -74.4095 220° Southwest  Level FlightAware Approximate
Mon 06:58:52 AM 42.7581 -74.1764 261° West 292 336 12,100  Level Boston Center
Mon 06:59:00 AM 42.5748 -74.4941 223° Southwest  Level FlightAware Approximate
Mon 06:59:52 AM 42.7458 -74.2919 262° West 313 360 14,300  Level Boston Center
Mon 07:00:00 AM 42.5029 -74.5822 220° Southwest  Level FlightAware Approximate
Mon 07:00:52 AM 42.6756 -74.3858 225° Southwest 326 375 16,000  Level Boston Center
Mon 07:01:52 AM 42.6094 -74.4656 222° Southwest 345 397 16,000  Level Boston Center
Mon 07:02:52 AM 42.5267 -74.5586 220° Southwest 362 417 16,000  Level Boston Center
Mon 07:03:52 AM 42.4583 -74.6381 221° Southwest 362 417 16,000 -50 Level Boston Center
Mon 07:04:52 AM 42.3772 -74.7306 220° Southwest 356 410 15,900 -50 Descending Boston Center
Mon 07:05:52 AM 42.3089 -74.8125 222° Southwest 361 415 15,900 31 Level Boston Center
Mon 07:08:07 AM 42.1397 -74.9939 219° Southwest 350 403 16,000 31 Climbing New York Center
Mon 07:09:08 AM 42.0542 -75.0611 210° Southwest 362 417 16,000  Level New York Center
Mon 07:10:06 AM 41.9725 -75.1311 213° Southwest 362 417 16,000  Level New York Center
Mon 07:11:07 AM 41.8758 -75.2083 211° Southwest 362 417 16,000  Level New York Center
Mon 07:12:08 AM 41.7922 -75.2750 211° Southwest 357 411 16,000  Level New York Center
Mon 07:13:07 AM 41.7083 -75.3444 212° Southwest 362 417 16,000 -504 Level New York Center
Mon 07:14:07 AM 41.6308 -75.4056 211° Southwest 357 411 15,000 -1,388 Descending New York Center
Mon 07:15:08 AM 41.5514 -75.4694 211° Southwest 352 405 13,200 -1,438 Descending New York Center
Mon 07:16:08 AM 41.4653 -75.5381 211° Southwest 341 392 12,100 -559 Descending New York Center
Mon 07:17:06 AM 41.3856 -75.6017 211° Southwest 336 387 12,100  Level New York Center
Mon 07:18:07 AM 41.3125 -75.6600 211° Southwest 336 387 12,100 -344 Level New York Center
Mon 07:19:08 AM 41.2242 -75.6811 190° South 327 376 11,400 -850 Descending New York Center
Mon 07:20:07 AM 41.1356 -75.6553 168° South 321 369 10,400 -655 Descending New York Center
Mon 07:21:07 AM 41.0389 -75.6236 166° South 332 382 10,100 -200 Descending New York Center
Mon 07:22:07 AM 40.9506 -75.5953 166° South 332 382 10,000 -50 Descending New York Center
Mon 07:23:08 AM 40.8581 -75.5642 166° South 332 382 10,000  Level New York Center
Mon 07:24:06 AM 40.7800 -75.5394 167° South 332 382 10,000  Level New York Center
Mon 07:25:07 AM 40.6833 -75.5081 166° South 332 382 10,000  Level New York Center
Mon 07:26:08 AM 40.5947 -75.4775 165° South 332 382 10,000  Level New York Center
Mon 07:27:08 AM 40.5083 -75.4525 168° South 332 382 10,000  Level New York Center
Mon 07:28:06 AM 40.4367 -75.4231 163° South 311 358 10,000 -814 Level New York Center
Mon 07:29:06 AM 40.3619 -75.3581 146° Southeast 301 346 8,400 -1,600 Descending New York Center
Mon 07:30:06 AM 40.2956 -75.2992 146° Southeast 296 341 6,800 -1,190 Descending New York Center
Mon 07:31:07 AM 40.2292 -75.2378 145° Southeast 291 335 6,000 -694 Descending New York Center
Mon 07:32:07 AM 40.1772 -75.1772 138° Southeast 285 328 5,400 -1,053 Descending New York Center
Mon 07:33:01 AM 40.1167 -75.1000 136° Southeast 283 326 4,000 -1,158 Descending Philadelphia TRACON
Mon 07:34:01 AM 40.0500 -75.0833 169° South 266 306 3,200 -950 Descending Philadelphia TRACON
Mon 07:35:01 AM 39.9833 -75.0833 180° South 251 289 2,100 -600 Descending Philadelphia TRACON
Mon 07:36:01 AM 39.9167 -75.0833 180° South 177 204 2,000 -100 Descending Philadelphia TRACON

Login

Don't have an account? Register now (free) for customized features, flight alerts, and more!